Time;durP1;ratioP1;P1;durP2;ratioP2;P2;SDS_P1;SDS_P2;PMS_P1;PMS_P2;Temp;Humidity;BMP_temperature;BMP_pressure;BME280_temperature;BME280_humidity;BME280_pressure;Samples;Min_cycle;Max_cycle;Signal;HPM_P1;HPM_P2
2022/06/01 00:01:15;;;;;;;6.50;6.20;;;;;;;17.74;100.00;100831.31;5036148;28;20137;-61
2022/06/01 00:03:43;;;;;;;6.72;6.43;;;;;;;17.71;100.00;100815.66;5030622;28;20859;-61
2022/06/01 00:06:09;;;;;;;6.47;6.18;;;;;;;17.75;100.00;100824.91;5033585;28;20048;-61
2022/06/01 00:08:35;;;;;;;6.68;6.38;;;;;;;17.75;100.00;100819.53;5034741;28;20027;-62
2022/06/01 00:11:01;;;;;;;6.55;6.25;;;;;;;17.71;100.00;100818.31;5035031;28;20421;-62
2022/06/01 00:13:27;;;;;;;6.70;6.40;;;;;;;17.71;100.00;100818.31;5044930;28;20028;-62
2022/06/01 00:15:53;;;;;;;6.53;6.22;;;;;;;17.62;100.00;100820.38;5036157;28;20518;-62
2022/06/01 00:18:19;;;;;;;6.50;6.20;;;;;;;17.61;100.00;100820.59;5023293;28;20026;-61
2022/06/01 00:20:46;;;;;;;6.90;6.60;;;;;;;17.54;100.00;100826.00;5027565;28;20047;-62
2022/06/01 00:23:12;;;;;;;6.90;6.60;;;;;;;17.54;100.00;100833.22;5034480;28;20029;-62
2022/06/01 00:25:38;;;;;;;6.47;6.18;;;;;;;17.47;100.00;100835.09;5034358;28;20037;-60
2022/06/01 00:28:03;;;;;;;6.70;6.40;;;;;;;17.47;100.00;100833.25;5034285;28;20366;-62
2022/06/01 00:30:30;;;;;;;6.70;6.40;;;;;;;17.38;100.00;100821.09;5025561;28;20029;-62
2022/06/01 00:32:56;;;;;;;6.75;6.45;;;;;;;17.33;100.00;100835.19;5034193;28;20061;-61
2022/06/01 00:35:23;;;;;;;6.60;6.30;;;;;;;17.34;100.00;100833.31;5029276;28;20060;-61
2022/06/01 00:37:49;;;;;;;6.70;6.40;;;;;;;17.28;100.00;100826.09;5027996;28;20515;-61
2022/06/01 00:40:17;;;;;;;6.50;6.20;;;;;;;17.27;100.00;100822.59;5034442;28;20142;-61
2022/06/01 00:42:45;;;;;;;6.55;6.25;;;;;;;17.31;100.00;100823.81;5034001;28;20029;-60
2022/06/01 00:45:14;;;;;;;6.57;6.28;;;;;;;17.29;100.00;100823.22;5033959;28;20408;-62
2022/06/01 00:47:40;;;;;;;6.55;6.25;;;;;;;17.18;100.00;100829.22;5038046;28;20086;-62
2022/06/01 00:50:11;;;;;;;6.43;6.13;;;;;;;17.13;100.00;100837.91;5027141;28;20058;-61
2022/06/01 00:52:40;;;;;;;6.70;6.40;;;;;;;17.04;100.00;100838.31;5032046;28;20733;-62
2022/06/01 00:55:12;;;;;;;6.40;6.10;;;;;;;17.05;100.00;100840.81;5034048;28;20021;-62
2022/06/01 00:57:39;;;;;;;6.80;6.50;;;;;;;17.06;100.00;100830.91;5049128;28;20405;-62
2022/06/01 01:00:13;;;;;;;6.70;6.40;;;;;;;16.97;100.00;100835.69;5033737;28;20025;-61
2022/06/01 01:02:39;;;;;;;6.47;6.18;;;;;;;16.91;100.00;100825.78;5033559;28;20400;-61
2022/06/01 01:05:06;;;;;;;6.82;6.53;;;;;;;16.90;100.00;100837.53;5034330;28;20079;-61
2022/06/01 01:07:32;;;;;;;6.80;6.50;;;;;;;16.88;100.00;100831.53;5033652;28;20021;-62
2022/06/01 01:09:58;;;;;;;6.57;6.28;;;;;;;16.80;100.00;100832.59;5033015;28;20029;-61
2022/06/01 01:12:23;;;;;;;6.80;6.50;;;;;;;16.80;100.00;100835.28;5033556;28;20029;-63
2022/06/01 01:14:49;;;;;;;6.72;6.43;;;;;;;16.79;100.00;100830.13;5034075;28;20523;-61
2022/06/01 01:17:15;;;;;;;6.60;6.30;;;;;;;16.78;100.00;100825.81;5033367;28;20032;-62
2022/06/01 01:19:52;;;;;;;6.57;6.28;;;;;;;16.80;100.00;100821.88;5033347;28;20032;-61
2022/06/01 01:22:37;;;;;;;6.70;6.40;;;;;;;16.83;100.00;100816.13;5035124;28;20037;-62
2022/06/01 01:25:25;;;;;;;6.50;6.20;;;;;;;16.80;100.00;100813.84;5032361;28;20028;-62
2022/06/01 01:27:53;;;;;;;6.65;6.35;;;;;;;16.74;100.00;100814.66;5032862;28;20083;-62
2022/06/01 01:30:25;;;;;;;6.78;6.47;;;;;;;16.73;100.00;100820.22;5033264;28;20109;-62
2022/06/01 01:32:51;;;;;;;6.47;6.18;;;;;;;16.44;100.00;100821.44;5021867;28;20030;-62
2022/06/01 01:35:18;;;;;;;7.10;6.80;;;;;;;16.57;100.00;100816.09;5033477;28;20017;-61
2022/06/01 01:37:43;;;;;;;6.50;6.20;;;;;;;16.55;100.00;100818.16;5033686;28;20029;-61
2022/06/01 01:40:10;;;;;;;6.55;6.25;;;;;;;16.54;100.00;100817.34;5033021;28;20079;-61
2022/06/01 01:42:35;;;;;;;6.70;6.40;;;;;;;16.56;100.00;100817.13;5027140;28;20111;-60
2022/06/01 01:45:07;;;;;;;6.60;6.30;;;;;;;16.56;100.00;100817.94;5032874;28;20484;-61
2022/06/01 01:47:36;;;;;;;6.47;6.18;;;;;;;16.55;100.00;100826.19;5023757;28;20076;-61
2022/06/01 01:50:04;;;;;;;6.70;6.40;;;;;;;16.55;100.00;100824.34;5030140;28;20503;-60
2022/06/01 01:52:30;;;;;;;6.47;6.18;;;;;;;16.58;100.00;100817.75;5039630;28;20036;-62
2022/06/01 01:55:39;;;;;;;6.80;6.50;;;;;;;16.61;100.00;100821.88;5033336;28;20021;-61
2022/06/01 01:58:27;;;;;;;6.55;6.25;;;;;;;16.52;100.00;100822.06;5016106;28;20037;-62
2022/06/01 02:00:58;;;;;;;6.60;6.30;;;;;;;16.59;100.00;100819.38;5022439;28;20028;-62
2022/06/01 02:03:24;;;;;;;6.50;6.20;;;;;;;16.61;100.00;100821.88;5029482;28;20510;-61
2022/06/01 02:06:05;;;;;;;6.60;6.30;;;;;;;16.62;100.00;100823.53;5027944;28;20041;-60
2022/06/01 02:08:36;;;;;;;6.68;6.38;;;;;;;16.60;100.00;100818.38;5028567;28;20036;-62
2022/06/01 02:14:05;;;;;;;6.60;6.30;;;;;;;16.51;100.00;100809.72;5030372;28;20036;-61
2022/06/01 02:16:36;;;;;;;6.50;6.20;;;;;;;16.63;100.00;100820.63;5032936;28;20381;-61
2022/06/01 02:19:06;;;;;;;6.70;6.40;;;;;;;16.66;100.00;100814.84;5034541;28;20063;-61
2022/06/01 02:21:32;;;;;;;6.30;6.05;;;;;;;16.64;100.00;100821.44;5039497;28;20022;-61
2022/06/01 02:24:00;;;;;;;6.82;6.53;;;;;;;16.62;100.00;100810.94;5032419;28;20036;-60
2022/06/01 02:26:27;;;;;;;6.53;6.22;;;;;;;16.68;100.00;100818.16;5032219;28;20052;-62
2022/06/01 02:29:01;;;;;;;6.50;6.20;;;;;;;16.74;100.00;100820.03;5032544;28;20499;-62
2022/06/01 02:31:28;;;;;;;6.35;6.05;;;;;;;16.82;100.00;100827.03;5031757;28;20045;-60
2022/06/01 02:33:55;;;;;;;6.38;6.07;;;;;;;16.71;100.00;100823.13;5037989;28;20037;-62
2022/06/01 02:36:23;;;;;;;6.50;6.20;;;;;;;16.81;100.00;100826.19;5032163;28;20021;-61
2022/06/01 02:38:52;;;;;;;6.50;6.20;;;;;;;16.93;100.00;100831.75;5032115;28;20032;-61
2022/06/01 02:44:02;;;;;;;5.90;5.70;;;;;;;16.95;100.00;100844.94;5032309;28;20499;-61
2022/06/01 02:46:28;;;;;;;6.80;6.50;;;;;;;17.05;100.00;100842.66;5031551;28;20045;-61
2022/06/01 02:48:55;;;;;;;6.50;6.20;;;;;;;17.17;100.00;100851.69;5031916;28;20108;-61
2022/06/01 02:51:22;;;;;;;6.53;6.22;;;;;;;17.18;100.00;100853.34;5032317;28;20392;-61
2022/06/01 02:53:48;;;;;;;6.60;6.30;;;;;;;17.51;100.00;100842.53;5032459;28;20026;-61
2022/06/01 02:56:14;;;;;;;6.80;6.50;;;;;;;17.98;100.00;100858.41;5031875;28;20036;-62
2022/06/01 02:58:40;;;;;;;6.70;6.40;;;;;;;18.55;100.00;100860.09;5031721;28;20034;-61
2022/06/01 03:01:06;;;;;;;6.65;6.35;;;;;;;19.22;100.00;100855.78;5032034;28;20083;-61
2022/06/01 03:03:33;;;;;;;6.57;6.28;;;;;;;19.95;100.00;100856.78;5034625;28;20022;-61
2022/06/01 03:05:58;;;;;;;6.80;6.50;;;;;;;20.81;100.00;100864.38;5031704;28;20046;-62
2022/06/01 03:08:25;;;;;;;6.70;6.40;;;;;;;21.52;100.00;100868.69;5031833;28;20025;-62
2022/06/01 03:10:51;;;;;;;6.57;6.28;;;;;;;22.09;97.65;100859.81;5031718;28;20029;-61
2022/06/01 03:13:17;;;;;;;6.70;6.40;;;;;;;21.90;95.62;100872.69;5030269;28;20464;-61
2022/06/01 03:15:42;;;;;;;7.03;6.72;;;;;;;21.86;97.00;100874.22;5031780;28;20056;-61
2022/06/01 03:18:08;;;;;;;7.00;6.70;;;;;;;22.74;91.78;100872.81;5031014;28;20534;-61
2022/06/01 03:20:34;;;;;;;6.90;6.60;;;;;;;22.78;90.95;100883.97;5031515;28;20040;-61
2022/06/01 03:23:01;;;;;;;6.88;6.57;;;;;;;23.36;87.59;100888.91;5031785;28;20036;-60
2022/06/01 03:25:28;;;;;;;6.70;6.40;;;;;;;23.70;86.49;100880.66;5031519;28;20552;-61
2022/06/01 03:28:00;;;;;;;6.90;6.60;;;;;;;22.52;90.84;100880.84;5031744;28;20029;-61
2022/06/01 03:30:27;;;;;;;6.90;6.60;;;;;;;21.79;96.51;100879.75;5031632;28;20026;-61
2022/06/01 03:32:53;;;;;;;6.90;6.60;;;;;;;21.42;97.66;100884.66;5031424;28;20075;-61
2022/06/01 03:35:23;;;;;;;6.80;6.50;;;;;;;21.11;99.96;100883.16;5031439;28;20026;-62
2022/06/01 03:37:49;;;;;;;6.85;6.55;;;;;;;20.83;100.00;100888.41;5031304;28;20434;-62
2022/06/01 03:40:17;;;;;;;6.88;6.57;;;;;;;20.57;100.00;100887.81;5031167;28;20064;-59
2022/06/01 03:42:43;;;;;;;6.95;6.65;;;;;;;20.69;100.00;100877.84;5023642;28;20052;-62
2022/06/01 03:47:55;;;;;;;6.72;6.43;;;;;;;20.76;100.00;100877.75;5030970;28;20049;-61
2022/06/01 03:50:21;;;;;;;6.85;6.55;;;;;;;20.69;100.00;100880.53;5029529;28;20377;-61
2022/06/01 03:52:47;;;;;;;6.90;6.60;;;;;;;20.26;100.00;100875.38;5030683;28;20036;-61
2022/06/01 03:55:14;;;;;;;6.97;6.68;;;;;;;20.18;100.00;100872.19;5031857;28;20022;-61
2022/06/01 03:57:41;;;;;;;6.45;6.15;;;;;;;20.30;100.00;100879.28;5027709;28;20432;-62
2022/06/01 04:00:09;;;;;;;6.90;6.60;;;;;;;20.96;100.00;100872.84;5025282;28;20053;-61
2022/06/01 04:02:36;;;;;;;6.72;6.43;;;;;;;23.24;90.46;100880.06;5028365;28;20108;-62
2022/06/01 04:05:03;;;;;;;6.97;6.68;;;;;;;25.62;77.03;100886.03;5033947;28;20442;-62
2022/06/01 04:07:28;;;;;;;6.88;6.57;;;;;;;24.46;80.18;100884.22;5035037;28;20072;-61
2022/06/01 04:09:54;;;;;;;7.15;6.85;;;;;;;27.28;68.60;100882.09;5033955;28;20421;-61
2022/06/01 04:12:20;;;;;;;6.95;6.65;;;;;;;28.74;61.19;100881.53;5029461;28;20026;-61
2022/06/01 04:14:45;;;;;;;7.00;6.70;;;;;;;28.44;61.23;100895.44;5034700;28;20450;-62
2022/06/01 04:17:10;;;;;;;7.10;6.80;;;;;;;27.72;62.42;100881.41;5034879;28;20026;-60
2022/06/01 04:19:36;;;;;;;7.07;6.78;;;;;;;27.83;61.69;100884.88;5035166;28;20373;-62
2022/06/01 04:22:02;;;;;;;7.00;6.70;;;;;;;28.53;59.14;100883.63;5034573;28;20559;-59
2022/06/01 04:24:31;;;;;;;7.03;6.72;;;;;;;28.77;57.65;100883.66;5033725;28;20032;-62
2022/06/01 04:26:56;;;;;;;7.13;6.82;;;;;;;28.41;58.49;100883.16;5028226;28;20038;-61
2022/06/01 04:29:22;;;;;;;7.20;6.90;;;;;;;28.19;57.51;100875.38;5035236;28;20051;-61
2022/06/01 04:31:48;;;;;;;6.97;6.68;;;;;;;28.31;57.86;100869.63;5033923;28;20038;-61
2022/06/01 04:34:14;;;;;;;7.10;6.80;;;;;;;27.24;60.59;100870.13;5034293;28;20079;-61
2022/06/01 04:36:39;;;;;;;7.30;7.00;;;;;;;28.19;58.28;100863.66;5034413;28;20026;-61
2022/06/01 04:39:06;;;;;;;7.00;6.70;;;;;;;28.98;55.02;100872.59;5034064;28;20469;-61
2022/06/01 04:41:33;;;;;;;7.00;6.70;;;;;;;29.53;53.68;100865.69;5033292;28;20120;-60
2022/06/01 04:43:58;;;;;;;7.20;6.90;;;;;;;30.84;49.66;100877.66;5034378;28;20029;-60
2022/06/01 04:46:24;;;;;;;7.15;6.85;;;;;;;30.80;48.75;100874.72;5034424;28;20512;-61
2022/06/01 04:48:49;;;;;;;7.35;7.05;;;;;;;30.71;48.48;100871.06;5034227;28;20029;-60
2022/06/01 04:51:15;;;;;;;7.30;7.00;;;;;;;29.65;50.68;100876.19;5034070;28;20527;-61
2022/06/01 04:53:43;;;;;;;7.30;7.00;;;;;;;28.83;53.07;100877.06;5033656;28;20026;-61
2022/06/01 04:56:11;;;;;;;7.20;6.90;;;;;;;30.40;48.96;100887.13;5034081;28;20037;-60
2022/06/01 04:58:37;;;;;;;7.40;7.10;;;;;;;30.47;48.03;100886.75;5032765;28;20104;-61
2022/06/01 05:01:03;;;;;;;7.18;6.88;;;;;;;30.70;47.96;100887.75;5025057;28;20026;-61
2022/06/01 05:03:28;;;;;;;7.30;7.00;;;;;;;31.13;47.71;100893.00;5033958;28;20058;-61
2022/06/01 05:05:54;;;;;;;7.03;6.72;;;;;;;31.48;45.54;100881.38;5032877;28;20489;-60
2022/06/01 05:08:19;;;;;;;7.05;6.75;;;;;;;31.68;45.48;100890.28;5038973;28;20024;-60
2022/06/01 05:10:44;;;;;;;7.18;6.88;;;;;;;32.36;43.04;100887.38;5033693;28;20069;-61
2022/06/01 05:13:11;;;;;;;7.40;7.10;;;;;;;33.23;41.28;100894.19;5033632;28;20033;-62
2022/06/01 05:15:46;;;;;;;7.40;7.10;;;;;;;32.93;40.88;100895.84;5032648;28;20064;-62
2022/06/01 05:18:12;;;;;;;7.35;7.05;;;;;;;33.29;40.31;100894.06;5034013;28;20032;-61
2022/06/01 05:20:38;;;;;;;7.40;7.10;;;;;;;34.66;37.23;100902.78;5035608;28;20048;-61
2022/06/01 05:23:04;;;;;;;7.65;7.35;;;;;;;33.02;39.25;100906.06;5034351;28;20485;-62
2022/06/01 05:25:29;;;;;;;7.57;7.28;;;;;;;32.00;42.86;100894.81;5044593;28;20480;-62
2022/06/01 05:27:55;;;;;;;7.50;7.20;;;;;;;34.46;37.67;100896.03;5034594;28;20033;-61
2022/06/01 05:30:20;;;;;;;7.38;7.07;;;;;;;33.98;37.83;100897.78;5032266;28;20455;-61
2022/06/01 05:32:46;;;;;;;7.35;7.05;;;;;;;35.87;34.73;100891.22;5035143;28;20076;-62
2022/06/01 05:35:12;;;;;;;7.32;7.03;;;;;;;35.30;35.44;100894.47;5043943;28;20522;-61
2022/06/01 05:37:37;;;;;;;7.57;7.28;;;;;;;36.20;34.08;100883.78;5022171;28;20033;-63
2022/06/01 05:40:03;;;;;;;7.53;7.22;;;;;;;36.67;33.03;100885.50;5030377;28;20033;-61
2022/06/01 05:42:29;;;;;;;7.38;7.07;;;;;;;36.27;33.12;100886.00;5027143;28;20047;-60
2022/06/01 05:44:54;;;;;;;7.32;7.03;;;;;;;35.54;33.96;100880.06;5031655;28;20493;-62
2022/06/01 05:47:20;;;;;;;7.28;6.97;;;;;;;36.60;32.31;100882.47;5025922;28;20432;-60
2022/06/01 05:49:49;;;;;;;7.20;6.90;;;;;;;35.88;33.02;100881.78;5032687;28;20219;-61
2022/06/01 05:52:18;;;;;;;7.47;7.18;;;;;;;34.79;34.80;100880.53;5043905;28;20063;-61
2022/06/01 05:54:47;;;;;;;7.53;7.22;;;;;;;33.56;37.21;100860.78;5031704;28;20112;-60
2022/06/01 05:57:14;;;;;;;7.35;7.05;;;;;;;34.41;35.84;100866.69;5031342;28;20025;-62
2022/06/01 05:59:40;;;;;;;7.50;7.20;;;;;;;32.62;39.40;100864.78;5032057;28;20094;-61
2022/06/01 06:02:07;;;;;;;7.25;6.95;;;;;;;30.66;42.67;100856.59;5032451;28;20110;-62
2022/06/01 06:04:32;;;;;;;7.43;7.13;;;;;;;32.45;40.11;100860.78;5032448;28;20414;-60
2022/06/01 06:06:58;;;;;;;6.95;6.65;;;;;;;34.43;36.20;100863.59;5032413;28;20044;-62
2022/06/01 06:09:24;;;;;;;7.30;7.00;;;;;;;35.16;34.55;100856.88;5032303;28;20452;-61
2022/06/01 06:11:52;;;;;;;7.32;7.03;;;;;;;36.63;32.12;100863.22;5032250;28;20031;-61
2022/06/01 06:14:18;;;;;;;7.55;7.25;;;;;;;35.70;33.14;100859.84;5032006;28;20036;-61
2022/06/01 06:16:45;;;;;;;7.32;7.03;;;;;;;36.92;31.60;100867.00;5032591;28;20040;-62
2022/06/01 06:19:12;;;;;;;7.38;7.07;;;;;;;36.01;32.63;100866.13;5032579;28;20112;-61
2022/06/01 06:21:38;;;;;;;7.38;7.07;;;;;;;36.82;31.41;100865.47;5032437;28;20036;-61
2022/06/01 06:24:07;;;;;;;7.20;6.90;;;;;;;36.94;31.26;100865.47;5031114;28;20025;-61
2022/06/01 06:26:34;;;;;;;7.15;6.85;;;;;;;35.54;33.03;100858.00;5035136;28;20021;-62
2022/06/01 06:29:05;;;;;;;7.25;6.95;;;;;;;34.88;35.13;100861.19;5032336;28;20124;-62
2022/06/01 06:31:31;;;;;;;7.30;7.00;;;;;;;35.20;34.36;100851.53;5032406;28;20028;-62
2022/06/01 06:33:57;;;;;;;7.32;7.03;;;;;;;36.57;31.69;100850.78;5032188;28;20088;-62
2022/06/01 06:36:22;;;;;;;7.50;7.20;;;;;;;35.97;32.00;100841.94;5032316;28;20053;-62
2022/06/01 06:38:48;;;;;;;7.30;7.00;;;;;;;35.34;33.85;100835.53;5031787;28;20100;-62
2022/06/01 06:41:14;;;;;;;7.60;7.30;;;;;;;37.27;30.82;100834.16;5019679;28;20436;-62
2022/06/01 06:43:40;;;;;;;7.38;7.07;;;;;;;36.83;31.07;100831.13;5031833;28;20037;-62
2022/06/01 06:46:13;;;;;;;7.47;7.18;;;;;;;36.75;31.90;100834.81;5031585;28;20037;-62
2022/06/01 06:48:39;;;;;;;;;;;;;;;37.77;30.26;100830.16;5029605;28;20122;-67
2022/06/01 06:51:05;;;;;;;7.47;7.18;;;;;;;37.88;30.37;100825.72;5017629;28;19917;-64
2022/06/01 06:53:31;;;;;;;7.68;7.38;;;;;;;38.01;29.23;100823.72;5027277;28;20029;-64
2022/06/01 06:55:58;;;;;;;7.30;7.00;;;;;;;38.12;29.51;100822.03;5021274;28;20022;-65
2022/06/01 06:58:24;;;;;;;7.45;7.15;;;;;;;37.45;31.00;100818.91;5029943;28;20504;-66
2022/06/01 07:00:51;;;;;;;7.28;6.97;;;;;;;39.04;28.81;100822.88;5028472;28;20037;-66
2022/06/01 07:03:17;;;;;;;7.38;7.07;;;;;;;37.68;30.31;100815.63;5028804;28;20488;-66
2022/06/01 07:08:28;;;;;;;7.43;7.13;;;;;;;38.63;29.08;100819.44;5017764;28;20036;-65
2022/06/01 07:10:55;;;;;;;7.40;7.10;;;;;;;38.42;28.76;100812.22;5026919;28;20087;-65
2022/06/01 07:13:24;;;;;;;7.50;7.20;;;;;;;36.87;30.67;100814.66;5021880;28;20035;-66
2022/06/01 07:16:13;;;;;;;7.20;6.90;;;;;;;38.31;29.59;100807.53;5033858;28;20563;-65
2022/06/01 07:18:42;;;;;;;7.40;7.10;;;;;;;37.97;29.52;100815.31;5029023;28;20163;-65
2022/06/01 07:21:08;;;;;;;7.25;6.95;;;;;;;37.64;30.57;100811.97;5019155;28;20118;-65
2022/06/01 07:23:35;;;;;;;7.30;7.00;;;;;;;38.52;28.58;100805.34;5028398;28;20100;-65
2022/06/01 07:26:00;;;;;;;7.35;7.05;;;;;;;35.05;33.80;100803.28;5032302;28;20024;-65
2022/06/01 07:28:26;;;;;;;7.22;6.93;;;;;;;35.26;33.86;100803.31;5027887;28;20052;-64
2022/06/01 07:30:58;;;;;;;7.35;7.05;;;;;;;36.43;31.88;100809.66;5019426;28;20865;-65
2022/06/01 07:33:26;;;;;;;7.30;7.00;;;;;;;36.32;32.38;100808.44;5029403;28;20041;-64
2022/06/01 07:35:53;;;;;;;7.07;6.78;;;;;;;36.22;31.96;100811.66;5026858;28;20057;-64
2022/06/01 07:43:48;;;;;;;7.20;6.90;;;;;;;31.47;40.75;100791.19;5028751;28;20530;-64
2022/06/01 07:46:13;;;;;;;6.78;6.47;;;;;;;32.86;39.04;100790.25;5025046;28;20045;-64
2022/06/01 07:48:39;;;;;;;7.40;7.10;;;;;;;34.15;35.72;100797.84;5031131;28;20463;-65
2022/06/01 07:51:05;;;;;;;7.30;7.00;;;;;;;33.35;37.41;100791.84;5031031;28;20025;-66
2022/06/01 07:53:30;;;;;;;7.20;6.90;;;;;;;35.05;34.92;100783.16;5032242;28;20029;-66
2022/06/01 07:55:56;;;;;;;7.22;6.93;;;;;;;29.85;45.06;100782.94;5030429;28;20531;-66
2022/06/01 07:58:21;;;;;;;7.07;6.78;;;;;;;30.34;44.24;100773.41;5035382;28;20538;-65
2022/06/01 08:00:48;;;;;;;7.13;6.82;;;;;;;32.63;38.69;100771.06;5030220;28;20458;-65
2022/06/01 08:03:15;;;;;;;7.10;6.80;;;;;;;32.41;38.74;100780.16;5036640;28;20037;-66
2022/06/01 08:05:41;;;;;;;7.30;7.00;;;;;;;34.03;34.57;100778.44;5029941;28;20097;-65
2022/06/01 08:08:07;;;;;;;7.20;6.90;;;;;;;34.75;34.51;100776.81;5035176;28;20236;-65
2022/06/01 08:10:34;;;;;;;7.20;6.90;;;;;;;34.83;33.77;100774.00;5029851;28;20504;-65
2022/06/01 08:13:09;;;;;;;7.20;6.90;;;;;;;31.27;41.72;100774.06;5024073;28;20044;-65
2022/06/01 08:15:44;;;;;;;7.20;6.90;;;;;;;31.85;39.21;100772.50;5027715;28;20053;-65
2022/06/01 08:18:12;;;;;;;7.40;7.10;;;;;;;31.75;38.48;100773.53;5024212;28;20079;-65
2022/06/01 08:20:38;;;;;;;7.20;6.90;;;;;;;29.97;42.51;100779.75;5022023;28;20037;-65
2022/06/01 08:23:05;;;;;;;6.95;6.65;;;;;;;28.26;46.91;100774.13;5027446;28;20033;-65
2022/06/01 08:25:31;;;;;;;7.05;6.75;;;;;;;31.23;40.35;100773.06;5030436;28;20107;-65
2022/06/01 08:27:57;;;;;;;7.00;6.70;;;;;;;31.38;38.52;100774.66;5028844;28;20100;-65
2022/06/01 08:30:25;;;;;;;7.30;7.00;;;;;;;33.25;36.98;100776.44;5024282;28;20119;-64
2022/06/01 08:32:51;;;;;;;7.15;6.85;;;;;;;31.73;38.40;100769.47;5035143;28;20025;-64
2022/06/01 08:35:20;;;;;;;7.20;6.90;;;;;;;30.77;40.77;100778.63;5029068;28;20034;-65
2022/06/01 08:37:47;;;;;;;7.43;7.13;;;;;;;30.52;41.42;100777.16;5020971;28;20025;-65
2022/06/01 08:40:14;;;;;;;7.20;6.90;;;;;;;31.60;39.59;100773.91;5027203;28;20049;-64
2022/06/01 08:42:48;;;;;;;7.10;6.80;;;;;;;31.91;38.85;100776.75;5032257;28;20029;-65
2022/06/01 08:45:14;;;;;;;7.30;7.00;;;;;;;31.89;38.72;100766.09;5032447;28;20068;-65
2022/06/01 08:47:41;;;;;;;7.20;6.90;;;;;;;32.36;37.93;100765.75;5030532;28;20049;-66
2022/06/01 08:50:25;;;;;;;7.00;6.70;;;;;;;33.25;36.48;100770.13;5021737;28;20477;-66
2022/06/01 08:52:52;;;;;;;;;;;;;;;29.46;43.72;100769.53;5029398;28;20110;-64
2022/06/01 08:55:18;;;;;;;7.07;6.78;;;;;;;31.06;39.91;100765.44;5028746;28;19917;-65
2022/06/01 08:57:57;;;;;;;6.85;6.55;;;;;;;29.74;42.63;100756.81;5020455;28;20025;-65
2022/06/01 09:00:26;;;;;;;6.90;6.60;;;;;;;29.64;43.81;100765.19;5024606;28;20384;-64
2022/06/01 09:02:57;;;;;;;6.85;6.55;;;;;;;31.43;39.66;100757.28;5027778;28;20025;-64
2022/06/01 09:05:23;;;;;;;7.10;6.80;;;;;;;31.32;39.27;100752.03;5027352;28;20026;-65
2022/06/01 09:08:18;;;;;;;7.20;6.90;;;;;;;30.61;41.02;100750.69;5022790;28;20048;-65
2022/06/01 09:11:16;;;;;;;6.85;6.55;;;;;;;32.51;36.82;100750.81;5017508;28;20029;-64
2022/06/01 09:14:22;;;;;;;6.90;6.60;;;;;;;28.61;45.02;100735.59;5022687;28;20099;-65
2022/06/01 09:16:57;;;;;;;7.13;6.82;;;;;;;29.36;43.93;100751.34;5036959;28;20082;-66
2022/06/01 09:19:30;;;;;;;6.95;6.65;;;;;;;31.17;39.88;100738.63;5026306;28;20029;-65
2022/06/01 09:24:49;;;;;;;6.90;6.60;;;;;;;29.53;42.99;100736.41;5015682;28;20401;-66
2022/06/01 09:27:16;;;;;;;7.07;6.78;;;;;;;31.19;40.66;100738.31;5029432;28;20040;-65
2022/06/01 09:29:44;;;;;;;6.72;6.43;;;;;;;28.59;45.64;100753.38;5018607;28;20041;-65
2022/06/01 09:32:41;;;;;;;6.68;6.38;;;;;;;30.91;40.13;100748.50;5017217;28;20030;-64
2022/06/01 09:35:10;;;;;;;6.90;6.60;;;;;;;29.60;43.39;100745.00;5029062;28;20044;-65
2022/06/01 09:37:41;;;;;;;6.88;6.57;;;;;;;30.17;42.29;100741.09;5020831;28;20105;-64
2022/06/01 09:40:22;;;;;;;6.50;6.20;;;;;;;29.96;42.17;100734.31;5026149;28;20056;-64
2022/06/01 09:42:51;;;;;;;6.60;6.30;;;;;;;29.43;42.81;100740.84;5030869;28;20087;-64
2022/06/01 09:45:29;;;;;;;6.65;6.35;;;;;;;29.99;42.02;100742.75;5030775;28;20127;-64
2022/06/01 09:48:16;;;;;;;6.50;6.20;;;;;;;29.16;44.03;100744.25;5030293;28;20048;-63
2022/06/01 09:50:45;;;;;;;6.80;6.50;;;;;;;29.72;42.68;100729.78;5021418;28;20389;-68
2022/06/01 09:53:10;;;;;;;7.10;6.80;;;;;;;28.31;45.56;100734.00;5014917;28;20033;-63
2022/06/01 09:55:48;;;;;;;7.10;6.80;;;;;;;28.48;45.59;100730.81;5016935;28;20448;-65
2022/06/01 10:07:06;;;;;;;7.00;6.70;;;;;;;29.10;43.89;100733.69;5019570;28;20021;-66
2022/06/01 10:09:34;;;;;;;7.10;6.80;;;;;;;29.22;43.28;100728.59;5028462;28;20555;-64
2022/06/01 10:12:23;;;;;;;6.97;6.68;;;;;;;28.92;44.29;100720.78;5029817;28;20033;-64
2022/06/01 10:14:53;;;;;;;7.00;6.70;;;;;;;28.46;45.19;100726.75;5026605;28;20056;-64
2022/06/01 10:17:24;;;;;;;6.70;6.40;;;;;;;27.46;48.26;100719.91;5027037;28;20021;-64
2022/06/01 10:20:18;;;;;;;6.68;6.38;;;;;;;28.98;44.49;100711.44;5028355;28;20036;-63
2022/06/01 10:23:09;;;;;;;6.93;6.63;;;;;;;29.94;43.34;100717.41;5028774;28;20029;-64
2022/06/01 10:25:52;;;;;;;7.03;6.72;;;;;;;29.82;42.74;100720.63;5028140;28;20029;-64
2022/06/01 10:28:25;;;;;;;6.87;6.57;;;;;;;30.14;42.02;100705.34;5030691;28;20403;-64
2022/06/01 10:30:57;;;;;;;6.63;6.32;;;;;;;29.16;43.19;100699.72;5030042;28;20026;-64
2022/06/01 10:33:29;;;;;;;6.70;6.40;;;;;;;29.80;42.57;100695.47;5027151;28;20029;-64
2022/06/01 10:36:05;;;;;;;6.72;6.43;;;;;;;28.81;44.77;100696.31;5027918;28;20034;-65
2022/06/01 10:38:55;;;;;;;6.90;6.60;;;;;;;28.54;45.36;100696.09;5028308;28;20025;-64
2022/06/01 10:41:47;;;;;;;7.00;6.70;;;;;;;27.92;47.79;100701.34;5019431;28;20033;-65
2022/06/01 10:44:25;;;;;;;6.75;6.45;;;;;;;27.75;47.99;100703.66;5035585;28;20033;-66
2022/06/01 10:47:01;;;;;;;6.90;6.60;;;;;;;28.80;45.41;100705.63;5030926;28;20045;-65
2022/06/01 10:49:33;;;;;;;7.03;6.72;;;;;;;29.06;44.62;100705.31;5031900;28;20055;-64
2022/06/01 10:52:34;;;;;;;6.68;6.38;;;;;;;28.86;45.66;100704.44;5029610;28;20163;-67
2022/06/01 10:55:11;;;;;;;6.78;6.47;;;;;;;28.81;47.85;100701.78;5002482;28;20045;-68
2022/06/01 10:57:41;;;;;;;7.20;6.90;;;;;;;28.76;50.28;100696.38;5026959;28;20048;-66
2022/06/01 11:00:12;;;;;;;6.57;6.28;;;;;;;28.74;52.26;100711.44;5039533;28;20037;-69
2022/06/01 11:02:53;;;;;;;6.97;6.68;;;;;;;28.54;56.93;100723.41;5037175;28;20037;-65
2022/06/01 11:05:44;;;;;;;6.90;6.60;;;;;;;26.95;57.53;100709.25;5029698;28;20037;-64
2022/06/01 11:08:35;;;;;;;6.70;6.40;;;;;;;25.15;62.93;100712.31;5014865;28;20032;-64
2022/06/01 11:11:06;;;;;;;6.60;6.30;;;;;;;25.21;62.54;100702.31;5028480;28;20056;-66
2022/06/01 11:13:58;;;;;;;7.00;6.70;;;;;;;25.28;67.11;100702.88;5031484;28;20080;-66
2022/06/01 11:16:23;;;;;;;7.05;6.75;;;;;;;25.23;69.13;100700.13;5034687;28;20053;-66
2022/06/01 11:19:27;;;;;;;6.93;6.63;;;;;;;25.65;70.19;100694.50;5039952;28;20060;-67
2022/06/01 11:22:12;;;;;;;7.00;6.70;;;;;;;26.13;68.66;100698.56;5011619;28;20042;-66
2022/06/01 11:25:07;;;;;;;7.15;6.85;;;;;;;26.17;65.40;100705.13;5033187;28;20120;-67
2022/06/01 11:27:35;;;;;;;8.20;7.90;;;;;;;25.47;66.84;100706.69;5028430;28;20037;-65
2022/06/01 11:30:08;;;;;;;7.55;7.25;;;;;;;25.88;63.11;100696.69;5032737;28;20025;-66
2022/06/01 11:32:51;;;;;;;6.90;6.60;;;;;;;25.94;63.28;100692.09;5039678;28;20028;-67
2022/06/01 11:35:39;;;;;;;6.77;6.47;;;;;;;25.19;67.73;100690.88;5034085;28;20032;-67
2022/06/01 11:38:28;;;;;;;6.80;6.50;;;;;;;25.28;67.01;100692.81;5029876;28;20297;-66
2022/06/01 11:41:23;;;;;;;7.03;6.72;;;;;;;25.08;66.52;100685.44;5030412;28;20088;-67
2022/06/01 11:44:02;;;;;;;6.90;6.60;;;;;;;25.09;70.99;100669.94;5030549;28;20489;-66
2022/06/01 11:46:33;;;;;;;6.97;6.68;;;;;;;26.06;69.37;100672.75;5033077;28;20057;-67
2022/06/01 11:49:03;;;;;;;6.90;6.60;;;;;;;25.31;71.46;100661.59;5033958;28;20100;-65
2022/06/01 11:51:38;;;;;;;7.00;6.70;;;;;;;25.42;69.64;100652.38;5029610;28;20087;-64
2022/06/01 11:54:24;;;;;;;6.85;6.55;;;;;;;25.70;70.12;100658.34;5026699;28;20033;-64
2022/06/01 11:57:00;;;;;;;6.75;6.45;;;;;;;26.09;67.23;100662.16;5041176;28;20056;-64
2022/06/01 11:59:25;;;;;;;6.70;6.40;;;;;;;26.13;71.94;100662.41;5033648;28;20029;-65
2022/06/01 12:02:41;;;;;;;6.80;6.50;;;;;;;27.48;64.96;100683.13;5034853;28;20397;-66
2022/06/01 12:05:20;;;;;;;7.10;6.80;;;;;;;27.83;61.40;100700.31;5034060;28;20551;-64
2022/06/01 12:07:50;;;;;;;6.80;6.50;;;;;;;28.92;52.92;100705.22;5023565;28;20398;-65